createdAt,value
2022-09-11T00:01:15.889Z,72.04
2022-09-11T00:03:43.993Z,72.06
2022-09-11T00:06:14.276Z,71.96
2022-09-11T00:08:42.266Z,72.36
2022-09-11T00:11:12.386Z,72.89
2022-09-11T00:13:40.455Z,73.33
2022-09-11T00:16:17.941Z,73.52
2022-09-11T00:18:44.727Z,73.57
2022-09-11T00:21:11.304Z,73.56
2022-09-11T00:23:37.862Z,73.77
2022-09-11T00:26:05.081Z,73.73
2022-09-11T00:28:31.649Z,73.57
2022-09-11T00:31:12.613Z,72.89
2022-09-11T00:33:40.175Z,72.54
2022-09-11T00:36:13.209Z,72.43
2022-09-11T00:38:40.306Z,72.22
2022-09-11T00:41:12.614Z,72.11
2022-09-11T00:44:02.669Z,71.63
2022-09-11T00:46:54.661Z,71.21
2022-09-11T00:49:32.569Z,70.92
2022-09-11T00:52:27.281Z,70.73
2022-09-11T00:54:59.879Z,70.46
2022-09-11T00:57:30.422Z,70.48
2022-09-11T00:59:59.448Z,70.75
2022-09-11T01:02:28.322Z,70.57
2022-09-11T01:04:57.246Z,70.42
2022-09-11T01:07:26.521Z,70.41
2022-09-11T01:09:54.160Z,70.26
2022-09-11T01:12:39.093Z,70.23
2022-09-11T01:15:30.206Z,70.18
2022-09-11T01:18:26.877Z,70.12
2022-09-11T01:20:56.018Z,70.31
2022-09-11T01:23:56.627Z,71.19
2022-09-11T01:26:36.884Z,71.39
2022-09-11T01:29:12.424Z,71.17
2022-09-11T01:31:50.022Z,70.72
2022-09-11T01:34:27.077Z,70.54
2022-09-11T01:37:01.027Z,70.06
2022-09-11T01:39:33.785Z,70.01
2022-09-11T01:42:05.925Z,70.91
2022-09-11T01:44:41.630Z,71.44
2022-09-11T01:47:11.861Z,72.12
2022-09-11T01:49:45.740Z,72.63
2022-09-11T01:52:18.512Z,72.86
2022-09-11T01:55:01.305Z,72.42
2022-09-11T01:57:42.742Z,72.32
2022-09-11T02:00:13.442Z,72.65
2022-09-11T02:02:47.247Z,72.67
2022-09-11T02:05:18.407Z,72.96
2022-09-11T02:07:55.950Z,73.18
2022-09-11T02:10:32.898Z,73.03
2022-09-11T02:13:11.394Z,73.21
2022-09-11T02:15:46.304Z,72.80
2022-09-11T02:18:18.798Z,73.18
2022-09-11T02:20:47.530Z,72.93
2022-09-11T02:23:15.551Z,72.88
2022-09-11T02:25:42.215Z,72.75
2022-09-11T02:28:09.935Z,72.63
2022-09-11T02:30:38.565Z,72.79
2022-09-11T02:33:26.374Z,72.49
2022-09-11T02:35:59.527Z,72.60
2022-09-11T02:38:39.932Z,72.75
2022-09-11T02:41:24.008Z,73.00
2022-09-11T02:44:06.997Z,73.19
2022-09-11T02:47:15.195Z,73.50
2022-09-11T02:50:21.990Z,73.17
2022-09-11T02:53:11.617Z,74.03
2022-09-11T02:55:56.604Z,74.25
2022-09-11T02:58:29.672Z,74.74
2022-09-11T03:01:01.750Z,74.86
2022-09-11T03:03:38.534Z,74.49
2022-09-11T03:06:06.243Z,74.53
2022-09-11T03:08:32.866Z,74.42
2022-09-11T03:11:00.106Z,74.75
2022-09-11T03:13:27.028Z,75.08
2022-09-11T03:15:54.061Z,75.39
2022-09-11T03:18:20.627Z,75.88
2022-09-11T03:20:47.329Z,75.73
2022-09-11T03:23:14.441Z,75.65
2022-09-11T03:25:41.348Z,74.79
2022-09-11T03:28:08.959Z,74.51
2022-09-11T03:30:35.684Z,74.71
2022-09-11T03:33:02.377Z,74.66
2022-09-11T03:35:29.146Z,74.38
2022-09-11T03:37:55.738Z,74.90
2022-09-11T03:40:22.417Z,74.93
2022-09-11T03:42:49.068Z,74.74
2022-09-11T03:45:17.216Z,74.82
2022-09-11T03:47:43.800Z,74.77
2022-09-11T03:50:11.551Z,74.96
2022-09-11T03:52:39.555Z,74.52
2022-09-11T03:55:07.025Z,74.32
2022-09-11T03:57:34.109Z,74.30
2022-09-11T04:00:01.528Z,74.51
2022-09-11T04:02:33.733Z,74.68
2022-09-11T04:05:00.393Z,74.58
2022-09-11T04:07:27.297Z,74.83
2022-09-11T04:09:54.214Z,74.83
2022-09-11T04:12:20.797Z,75.49
2022-09-11T04:14:48.235Z,76.08
2022-09-11T04:17:17.152Z,76.67
2022-09-11T04:19:43.765Z,76.95
2022-09-11T04:22:10.502Z,76.34
2022-09-11T04:24:40.054Z,76.18
2022-09-11T04:27:06.810Z,76.17
2022-09-11T04:29:33.912Z,75.89
2022-09-11T04:32:01.463Z,75.96
2022-09-11T04:34:31.244Z,75.65
2022-09-11T04:36:57.904Z,75.69
2022-09-11T04:39:26.021Z,75.68
2022-09-11T04:41:52.648Z,75.29
2022-09-11T04:44:21.534Z,75.16
2022-09-11T04:46:48.144Z,74.72
2022-09-11T04:49:15.340Z,74.55
2022-09-11T04:51:45.180Z,74.51
2022-09-11T04:54:16.505Z,74.74
2022-09-11T04:56:43.301Z,74.35
2022-09-11T04:59:16.094Z,74.28
2022-09-11T05:01:48.775Z,74.64
2022-09-11T05:04:21.702Z,74.11
2022-09-11T05:06:51.117Z,73.97
2022-09-11T05:09:18.874Z,74.11
2022-09-11T05:11:47.145Z,73.99
2022-09-11T05:14:15.225Z,73.91
2022-09-11T05:16:44.994Z,74.59
2022-09-11T05:19:12.571Z,74.67
2022-09-11T05:21:39.801Z,74.44
2022-09-11T05:24:06.373Z,74.42
2022-09-11T05:26:36.850Z,74.03
2022-09-11T05:29:11.713Z,74.21
2022-09-11T05:31:44.822Z,74.03
2022-09-11T05:34:14.135Z,74.20
2022-09-11T05:36:41.456Z,74.18
2022-09-11T05:39:09.420Z,73.72
2022-09-11T05:41:36.883Z,74.01
2022-09-11T05:44:06.076Z,73.79
2022-09-11T05:46:36.934Z,73.63
2022-09-11T05:49:03.801Z,73.49
2022-09-11T05:51:30.466Z,73.24
2022-09-11T05:53:58.617Z,73.17
2022-09-11T05:56:26.498Z,73.26
2022-09-11T05:58:58.633Z,72.82
2022-09-11T06:01:33.375Z,72.72
2022-09-11T06:04:12.262Z,72.83
2022-09-11T06:06:41.443Z,72.96
2022-09-11T06:09:08.182Z,72.96
2022-09-11T06:11:35.058Z,73.32
2022-09-11T06:14:02.509Z,73.40
2022-09-11T06:16:31.435Z,73.25
2022-09-11T06:19:05.661Z,73.69
2022-09-11T06:21:32.327Z,74.07
2022-09-11T06:24:08.172Z,74.41
2022-09-11T06:26:35.463Z,74.04
2022-09-11T06:29:02.970Z,73.91
2022-09-11T06:31:30.451Z,73.98
2022-09-11T06:33:57.814Z,74.02
2022-09-11T06:36:32.710Z,74.00
2022-09-11T06:39:03.139Z,73.70
2022-09-11T06:41:30.805Z,74.22
2022-09-11T06:44:03.094Z,73.85
2022-09-11T06:46:30.922Z,73.68
2022-09-11T06:48:59.260Z,73.40
2022-09-11T06:51:28.163Z,73.41
2022-09-11T06:53:57.989Z,72.95
2022-09-11T06:56:28.189Z,72.98
2022-09-11T06:58:56.159Z,72.68
2022-09-11T07:01:30.788Z,72.27
2022-09-11T07:04:03.037Z,71.56
2022-09-11T07:06:32.392Z,71.56
2022-09-11T07:09:02.672Z,71.33
2022-09-11T07:11:44.823Z,70.93
2022-09-11T07:14:11.605Z,70.35
2022-09-11T07:16:41.166Z,69.78
2022-09-11T07:19:11.162Z,70.38
2022-09-11T07:21:41.838Z,70.47
2022-09-11T07:24:09.250Z,69.88
2022-09-11T07:26:39.809Z,70.16
2022-09-11T07:29:15.715Z,70.03
2022-09-11T07:31:52.402Z,69.65
2022-09-11T07:34:19.212Z,69.10
2022-09-11T07:36:51.726Z,68.94
2022-09-11T07:39:19.532Z,68.21
2022-09-11T07:41:55.587Z,67.69
2022-09-11T07:44:30.037Z,67.31
2022-09-11T07:46:57.686Z,67.69
2022-09-11T07:49:24.727Z,67.27
2022-09-11T07:51:52.738Z,66.91
2022-09-11T07:54:29.090Z,66.82
2022-09-11T07:57:07.988Z,66.31
2022-09-11T07:59:34.894Z,66.09
2022-09-11T08:02:03.013Z,66.49
2022-09-11T08:04:31.220Z,65.51
2022-09-11T08:06:57.955Z,65.23
2022-09-11T08:09:33.465Z,65.29
2022-09-11T08:12:03.729Z,64.88
2022-09-11T08:14:32.586Z,65.42
2022-09-11T08:17:08.621Z,66.09
2022-09-11T08:19:37.117Z,66.31
2022-09-11T08:22:04.007Z,66.70
2022-09-11T08:24:35.728Z,66.64
2022-09-11T08:27:06.075Z,68.05
2022-09-11T08:29:35.902Z,67.30
2022-09-11T08:32:02.673Z,66.76
2022-09-11T08:34:31.866Z,66.11
2022-09-11T08:36:58.810Z,65.64
2022-09-11T08:39:27.597Z,66.27
2022-09-11T08:42:06.003Z,66.31
2022-09-11T08:44:48.807Z,66.46
2022-09-11T08:47:31.178Z,65.90
2022-09-11T08:50:07.173Z,65.38
2022-09-11T08:52:35.945Z,65.05
2022-09-11T08:55:03.453Z,65.43
2022-09-11T08:57:33.493Z,65.86
2022-09-11T09:00:20.539Z,65.50
2022-09-11T09:03:30.539Z,64.68
2022-09-11T09:06:11.844Z,65.69
2022-09-11T09:09:08.786Z,66.62
2022-09-11T09:12:05.460Z,67.16
2022-09-11T09:15:17.164Z,66.64
2022-09-11T09:17:57.048Z,66.71
2022-09-11T09:20:33.822Z,66.18
2022-09-11T09:23:23.613Z,65.81
2022-09-11T09:25:57.137Z,64.90
2022-09-11T09:28:31.332Z,64.24
2022-09-11T09:31:07.977Z,64.70
2022-09-11T09:33:35.292Z,64.42
2022-09-11T09:36:16.759Z,63.18
2022-09-11T09:38:46.541Z,63.22
2022-09-11T09:41:22.758Z,63.38
2022-09-11T09:44:19.614Z,63.61
2022-09-11T09:46:54.163Z,63.78
2022-09-11T09:49:31.109Z,63.85
2022-09-11T09:52:04.060Z,64.34
2022-09-11T09:54:37.167Z,67.27
2022-09-11T09:57:07.760Z,68.46
2022-09-11T09:59:48.288Z,69.94
2022-09-11T10:02:39.477Z,70.87
2022-09-11T10:05:27.617Z,70.98
2022-09-11T10:07:57.734Z,71.14
2022-09-11T10:10:38.636Z,71.75
2022-09-11T10:13:25.003Z,72.32
2022-09-11T10:15:54.023Z,73.17
2022-09-11T10:18:33.183Z,73.67
2022-09-11T10:21:12.091Z,73.15
2022-09-11T10:24:01.780Z,73.38
2022-09-11T10:26:49.781Z,72.07
2022-09-11T10:29:24.280Z,72.69
2022-09-11T10:31:53.107Z,73.34
2022-09-11T10:34:22.310Z,73.12
2022-09-11T10:37:16.507Z,71.25
2022-09-11T10:39:47.054Z,70.95
2022-09-11T10:42:16.897Z,69.97
2022-09-11T10:44:49.207Z,70.54
2022-09-11T10:47:17.572Z,71.05
2022-09-11T10:49:45.084Z,71.02
2022-09-11T10:52:11.661Z,71.13
2022-09-11T10:54:54.099Z,70.72
2022-09-11T10:57:45.349Z,69.99
2022-09-11T11:00:22.670Z,68.74
2022-09-11T11:02:53.263Z,69.04
2022-09-11T11:05:31.878Z,69.17
2022-09-11T11:08:09.515Z,69.18
2022-09-11T11:11:03.748Z,68.86
2022-09-11T11:14:01.925Z,67.79
2022-09-11T11:16:48.687Z,64.84
2022-09-11T11:19:58.808Z,64.14
2022-09-11T11:22:28.678Z,63.85
2022-09-11T11:25:30.287Z,64.19
2022-09-11T11:28:20.251Z,64.02
2022-09-11T11:31:35.787Z,61.06
2022-09-11T11:34:15.676Z,57.62
2022-09-11T11:36:48.158Z,55.85
2022-09-11T11:39:23.193Z,54.88
2022-09-11T11:42:12.825Z,53.04
2022-09-11T11:44:44.700Z,51.69
2022-09-11T11:47:12.646Z,52.50
2022-09-11T11:50:06.717Z,52.47
2022-09-11T11:52:34.391Z,54.43
2022-09-11T11:55:18.123Z,55.13
2022-09-11T11:57:54.119Z,53.73
2022-09-11T12:00:21.503Z,55.01
2022-09-11T12:03:18.288Z,56.18
2022-09-11T12:05:44.942Z,56.77
2022-09-11T12:08:16.642Z,55.74
2022-09-11T12:10:55.979Z,55.32
2022-09-11T12:13:29.928Z,55.32
2022-09-11T12:16:14.935Z,55.73
2022-09-11T12:19:00.759Z,56.36
2022-09-11T12:21:32.539Z,56.05
2022-09-11T12:23:59.905Z,56.54
2022-09-11T12:26:32.138Z,56.18
2022-09-11T12:29:17.625Z,55.99
2022-09-11T12:32:18.954Z,55.61
2022-09-11T12:34:45.979Z,54.32
2022-09-11T12:37:26.025Z,53.99
2022-09-11T12:40:00.878Z,54.45
2022-09-11T12:42:30.402Z,54.14
2022-09-11T12:44:59.679Z,54.61
2022-09-11T12:47:42.630Z,55.61
2022-09-11T12:50:12.184Z,54.87
2022-09-11T12:52:46.486Z,54.84
2022-09-11T12:55:35.910Z,55.65
2022-09-11T12:58:07.432Z,56.16
2022-09-11T13:00:43.737Z,57.30
2022-09-11T13:03:21.501Z,57.99
2022-09-11T13:05:56.907Z,58.39
2022-09-11T13:08:27.888Z,57.68
2022-09-11T13:11:40.816Z,58.15
2022-09-11T13:14:28.090Z,58.50
2022-09-11T13:16:59.805Z,59.07
2022-09-11T13:19:37.100Z,59.10
2022-09-11T13:22:22.007Z,58.64
2022-09-11T13:24:51.478Z,59.66
2022-09-11T13:27:29.351Z,60.31
2022-09-11T13:29:58.159Z,60.61
2022-09-11T13:32:26.783Z,60.69
2022-09-11T13:35:01.968Z,60.91
2022-09-11T13:37:46.849Z,61.13
2022-09-11T13:40:27.551Z,60.93
2022-09-11T13:42:54.395Z,61.40
2022-09-11T13:45:28.625Z,61.80
2022-09-11T13:47:57.493Z,61.84
2022-09-11T13:50:32.268Z,62.71
2022-09-11T13:53:01.895Z,63.06
2022-09-11T13:55:30.122Z,63.79
2022-09-11T13:58:03.367Z,64.23
2022-09-11T14:00:44.980Z,64.18
2022-09-11T14:03:20.374Z,64.05
2022-09-11T14:05:53.936Z,64.02
2022-09-11T14:08:36.884Z,62.87
2022-09-11T14:11:21.254Z,63.40
2022-09-11T14:14:09.793Z,63.21
2022-09-11T14:16:47.970Z,63.27
2022-09-11T14:19:20.341Z,62.49
2022-09-11T14:21:51.307Z,62.76
2022-09-11T14:24:27.424Z,62.21
2022-09-11T14:26:58.228Z,62.01
2022-09-11T14:29:32.110Z,62.43
2022-09-11T14:32:36.998Z,62.25
2022-09-11T14:35:07.178Z,62.75
2022-09-11T14:37:40.247Z,63.05
2022-09-11T14:40:14.886Z,63.27
2022-09-11T14:42:42.952Z,63.47
2022-09-11T14:45:21.472Z,63.83
2022-09-11T14:47:49.692Z,64.67
2022-09-11T14:50:16.831Z,64.98
2022-09-11T14:52:46.777Z,65.73
2022-09-11T14:55:18.442Z,66.81
2022-09-11T14:57:51.408Z,67.21
2022-09-11T15:00:19.293Z,67.43
2022-09-11T15:02:46.509Z,67.97
2022-09-11T15:05:16.506Z,67.81
2022-09-11T15:07:45.485Z,67.86
2022-09-11T15:10:13.578Z,68.08
2022-09-11T15:12:40.217Z,68.19
2022-09-11T15:15:07.364Z,68.17
2022-09-11T15:17:36.274Z,69.08
2022-09-11T15:20:09.423Z,69.19
2022-09-11T15:22:38.288Z,69.31
2022-09-11T15:25:05.611Z,68.64
2022-09-11T15:27:32.318Z,68.47
2022-09-11T15:30:04.275Z,68.96
2022-09-11T15:32:31.415Z,68.62
2022-09-11T15:34:58.081Z,68.79
2022-09-11T15:37:25.424Z,68.64
2022-09-11T15:39:52.287Z,68.26
2022-09-11T15:42:19.323Z,67.93
2022-09-11T15:44:48.141Z,68.32
2022-09-11T15:47:14.830Z,67.62
2022-09-11T15:49:44.428Z,67.14
2022-09-11T15:52:11.288Z,67.36
2022-09-11T15:54:37.959Z,67.78
2022-09-11T15:57:04.540Z,68.08
2022-09-11T15:59:31.105Z,68.40
2022-09-11T16:01:59.154Z,68.86
2022-09-11T16:04:30.904Z,69.26
2022-09-11T16:06:57.452Z,69.75
2022-09-11T16:09:29.438Z,69.82
2022-09-11T16:11:56.910Z,69.75
2022-09-11T16:14:27.246Z,69.78
2022-09-11T16:16:58.407Z,70.06
2022-09-11T16:19:28.128Z,70.17
2022-09-11T16:22:00.766Z,70.17
2022-09-11T16:24:29.232Z,70.01
2022-09-11T16:26:56.111Z,69.78
2022-09-11T16:29:43.999Z,69.56
2022-09-11T16:32:28.080Z,69.99
2022-09-11T16:34:57.006Z,70.08
2022-09-11T16:37:23.978Z,70.23
2022-09-11T16:39:50.841Z,70.11
2022-09-11T16:42:21.729Z,69.74
2022-09-11T16:44:49.667Z,69.25
2022-09-11T16:47:16.813Z,69.75
2022-09-11T16:52:34.503Z,69.13
2022-09-11T16:55:01.534Z,68.95
2022-09-11T16:57:28.193Z,68.87
2022-09-11T16:59:54.872Z,68.11
2022-09-11T17:02:24.338Z,68.47
2022-09-11T17:04:51.016Z,67.95
2022-09-11T17:07:20.036Z,67.98
2022-09-11T17:09:49.195Z,68.12
2022-09-11T17:12:17.945Z,68.48
2022-09-11T17:14:46.462Z,68.54
2022-09-11T17:17:13.282Z,68.92
2022-09-11T17:19:42.935Z,69.45
2022-09-11T17:22:10.560Z,69.44
2022-09-11T17:24:38.754Z,69.51
2022-09-11T17:27:05.574Z,69.79
2022-09-11T17:29:44.587Z,70.32
2022-09-11T17:32:27.218Z,70.41
2022-09-11T17:34:55.063Z,70.80
2022-09-11T17:37:24.162Z,70.90
2022-09-11T17:39:50.778Z,71.43
2022-09-11T17:42:20.577Z,71.62
2022-09-11T17:44:47.894Z,71.73
2022-09-11T17:47:14.949Z,71.99
2022-09-11T17:49:42.956Z,72.09
2022-09-11T17:52:09.725Z,72.21
2022-09-11T17:54:39.588Z,72.50
2022-09-11T17:57:08.833Z,72.62
2022-09-11T17:59:39.204Z,72.60
2022-09-11T18:02:06.234Z,72.68
2022-09-11T18:04:32.993Z,72.90
2022-09-11T18:06:59.599Z,72.76
2022-09-11T18:09:26.241Z,72.67
2022-09-11T18:11:54.578Z,72.67
2022-09-11T18:14:21.582Z,72.93
2022-09-11T18:16:48.223Z,72.85
2022-09-11T18:19:16.313Z,73.27
2022-09-11T18:21:45.614Z,73.39
2022-09-11T18:24:19.887Z,73.72
2022-09-11T18:26:49.936Z,73.45
2022-09-11T18:29:19.970Z,73.83
2022-09-11T18:31:50.149Z,73.72
2022-09-11T18:34:22.600Z,73.81
2022-09-11T18:36:49.559Z,74.14
2022-09-11T18:39:17.989Z,74.03
2022-09-11T18:41:45.787Z,74.17
2022-09-11T18:44:19.273Z,74.44
2022-09-11T18:46:46.879Z,74.57
2022-09-11T18:49:15.146Z,74.76
2022-09-11T18:51:42.400Z,74.76
2022-09-11T18:54:18.221Z,74.66
2022-09-11T18:56:45.216Z,74.67
2022-09-11T18:59:12.890Z,74.64
2022-09-11T19:01:41.184Z,74.95
2022-09-11T19:04:10.357Z,74.94
2022-09-11T19:06:38.686Z,75.10
2022-09-11T19:09:07.471Z,75.26
2022-09-11T19:11:34.127Z,75.16
2022-09-11T19:14:07.121Z,75.17
2022-09-11T19:16:34.003Z,75.35
2022-09-11T19:19:00.638Z,75.24
2022-09-11T19:21:27.866Z,75.34
2022-09-11T19:24:00.330Z,75.10
2022-09-11T19:26:34.991Z,74.72
2022-09-11T19:29:01.891Z,74.95
2022-09-11T19:31:29.708Z,74.76
2022-09-11T19:33:57.915Z,74.73
2022-09-11T19:36:26.845Z,74.46
2022-09-11T19:38:55.940Z,74.61
2022-09-11T19:41:24.361Z,74.87
2022-09-11T19:43:50.978Z,75.03
2022-09-11T19:46:24.095Z,75.33
2022-09-11T19:48:53.377Z,75.28
2022-09-11T19:51:22.966Z,75.54
2022-09-11T19:53:51.138Z,75.57
2022-09-11T19:56:19.117Z,75.78
2022-09-11T19:58:45.690Z,75.74
2022-09-11T20:01:18.404Z,75.65
2022-09-11T20:03:46.121Z,75.69
2022-09-11T20:06:16.387Z,76.18
2022-09-11T20:08:45.491Z,76.37
2022-09-11T20:11:21.250Z,76.52
2022-09-11T20:13:48.422Z,76.43
2022-09-11T20:16:18.123Z,76.45
2022-09-11T20:18:45.028Z,76.61
2022-09-11T20:21:15.585Z,76.56
2022-09-11T20:23:44.164Z,76.90
2022-09-11T20:26:21.386Z,76.78
2022-09-11T20:28:53.486Z,76.66
2022-09-11T20:31:24.241Z,76.98
2022-09-11T20:33:54.138Z,76.88
2022-09-11T20:36:21.591Z,76.81
2022-09-11T20:38:52.513Z,76.86
2022-09-11T20:41:20.242Z,77.20
2022-09-11T20:43:47.058Z,77.36
2022-09-11T20:46:13.725Z,77.17
2022-09-11T20:48:40.638Z,77.47
2022-09-11T20:51:10.120Z,77.77
2022-09-11T20:53:38.416Z,77.80
2022-09-11T20:56:11.036Z,78.25
2022-09-11T20:58:38.750Z,78.04
2022-09-11T21:01:06.887Z,78.29
2022-09-11T21:03:33.578Z,78.21
2022-09-11T21:06:09.542Z,78.52
2022-09-11T21:08:36.404Z,78.60
2022-09-11T21:11:06.956Z,78.76
2022-09-11T21:13:38.627Z,78.92
2022-09-11T21:16:07.682Z,79.12
2022-09-11T21:18:34.882Z,78.88
2022-09-11T21:21:01.537Z,78.91
2022-09-11T21:23:28.287Z,78.70
2022-09-11T21:25:54.953Z,78.80
2022-09-11T21:28:22.006Z,78.56
2022-09-11T21:30:48.686Z,78.25
2022-09-11T21:33:15.318Z,78.13
2022-09-11T21:35:42.021Z,78.40
2022-09-11T21:38:08.783Z,78.50
2022-09-11T21:40:35.353Z,78.69
2022-09-11T21:43:03.105Z,78.77
2022-09-11T21:45:29.632Z,78.48
2022-09-11T21:47:57.558Z,78.68
2022-09-11T21:50:24.112Z,78.89
2022-09-11T21:52:50.708Z,78.75
2022-09-11T21:55:17.506Z,78.57
2022-09-11T21:57:44.597Z,78.94
2022-09-11T22:00:12.826Z,79.09
2022-09-11T22:02:42.266Z,78.72
2022-09-11T22:05:09.511Z,78.74
2022-09-11T22:07:36.446Z,78.33
2022-09-11T22:10:04.947Z,78.19
2022-09-11T22:12:31.607Z,77.75
2022-09-11T22:14:58.491Z,77.62
2022-09-11T22:17:25.075Z,77.24
2022-09-11T22:19:51.614Z,77.82
2022-09-11T22:22:18.569Z,78.00
2022-09-11T22:24:45.113Z,77.98
2022-09-11T22:27:11.746Z,78.24
2022-09-11T22:29:38.371Z,78.29
2022-09-11T22:32:05.870Z,78.61
2022-09-11T22:34:34.781Z,79.07
2022-09-11T22:37:08.959Z,79.36
2022-09-11T22:39:35.692Z,79.69
2022-09-11T22:42:04.447Z,80.12
2022-09-11T22:44:31.046Z,80.53
2022-09-11T22:46:57.651Z,80.56
2022-09-11T22:49:24.596Z,80.65
2022-09-11T22:51:51.268Z,80.77
2022-09-11T22:54:18.006Z,80.83
2022-09-11T22:56:44.781Z,80.75
2022-09-11T22:59:11.278Z,80.79
2022-09-11T23:01:38.155Z,80.30
2022-09-11T23:04:05.067Z,80.08
2022-09-11T23:06:50.051Z,79.92
2022-09-11T23:09:19.469Z,79.20
2022-09-11T23:11:46.700Z,79.67
2022-09-11T23:14:14.774Z,79.55
2022-09-11T23:16:42.655Z,79.39
2022-09-11T23:19:12.824Z,79.51
2022-09-11T23:21:39.461Z,79.30
2022-09-11T23:24:06.261Z,79.27
2022-09-11T23:26:32.865Z,78.94
2022-09-11T23:28:59.454Z,78.92
2022-09-11T23:31:30.461Z,78.94
2022-09-11T23:33:59.498Z,78.97
2022-09-11T23:36:26.686Z,79.09
2022-09-11T23:38:53.264Z,78.99
2022-09-11T23:41:20.474Z,79.50
2022-09-11T23:43:47.415Z,79.50
2022-09-11T23:46:15.258Z,79.10
2022-09-11T23:48:42.217Z,79.15
2022-09-11T23:51:10.388Z,79.19
2022-09-11T23:53:40.821Z,79.17
2022-09-11T23:56:07.785Z,79.28
2022-09-11T23:58:39.226Z,79.51
